createdAt,value
2019-02-22T00:00:20.167Z,102797.40
2019-02-22T00:03:24.033Z,102792.63
2019-02-22T00:06:27.862Z,102808.38
2019-02-22T00:09:31.726Z,102812.53
2019-02-22T00:12:35.589Z,102818.67
2019-02-22T00:15:39.659Z,102814.16
2019-02-22T00:18:43.653Z,102830.61
2019-02-22T00:21:47.524Z,102830.70
2019-02-22T00:24:51.427Z,102835.98
2019-02-22T00:27:55.435Z,102840.55
2019-02-22T00:30:59.276Z,102845.55
2019-02-22T00:34:03.233Z,102858.70
2019-02-22T00:37:07.358Z,102866.16
2019-02-22T00:40:11.242Z,102860.78
2019-02-22T00:43:15.222Z,102867.48
2019-02-22T00:46:19.050Z,102881.25
2019-02-22T00:49:22.967Z,102888.71
2019-02-22T00:52:26.781Z,102903.59
2019-02-22T00:55:30.616Z,102910.41
2019-02-22T00:58:34.506Z,102909.90
2019-02-22T01:01:38.511Z,102921.07
2019-02-22T01:04:42.472Z,102921.07
2019-02-22T01:07:46.396Z,102928.69
2019-02-22T01:10:50.210Z,102920.88
2019-02-22T01:13:54.056Z,102936.42
2019-02-22T01:16:58.146Z,102930.28
2019-02-22T01:20:02.050Z,102957.81
2019-02-22T01:23:05.905Z,102959.50
2019-02-22T01:26:09.791Z,102955.82
2019-02-22T01:29:13.633Z,102958.87
2019-02-22T01:32:17.474Z,102969.80
2019-02-22T01:35:21.371Z,102975.45
2019-02-22T01:38:25.181Z,102978.90
2019-02-22T01:41:29.132Z,102985.91
2019-02-22T01:44:33.102Z,102985.36
2019-02-22T01:47:36.910Z,102976.91
2019-02-22T01:50:40.799Z,102986.78
2019-02-22T01:53:44.618Z,102995.22
2019-02-22T01:56:48.444Z,102982.30
2019-02-22T01:59:52.311Z,102984.59
2019-02-22T02:02:56.132Z,102991.66
2019-02-22T02:05:59.956Z,102999.19
2019-02-22T02:09:05.883Z,103004.61
2019-02-22T02:12:09.912Z,103014.27
2019-02-22T02:15:14.054Z,103021.11
2019-02-22T02:18:17.888Z,103021.64
2019-02-22T02:21:21.776Z,103022.98
2019-02-22T02:24:25.696Z,103032.73
2019-02-22T02:27:29.605Z,103031.41
2019-02-22T02:30:33.584Z,103037.48
2019-02-22T02:33:37.593Z,103043.19
2019-02-22T02:36:41.446Z,103052.36
2019-02-22T02:39:45.413Z,103054.54
2019-02-22T02:42:49.296Z,103060.75
2019-02-22T02:45:53.159Z,103065.95
2019-02-22T02:48:56.958Z,103064.88
2019-02-22T02:52:00.774Z,103063.05
2019-02-22T02:55:04.723Z,103073.32
2019-02-22T02:58:08.710Z,103085.34
2019-02-22T03:01:12.510Z,103093.79
2019-02-22T03:04:16.398Z,103102.07
2019-02-22T03:07:37.690Z,103107.96
2019-02-22T03:10:41.554Z,103104.89
2019-02-22T03:13:45.410Z,103106.08
2019-02-22T03:16:49.250Z,103117.89
2019-02-22T03:19:53.135Z,103127.58
2019-02-22T03:22:57.157Z,103139.37
2019-02-22T03:26:01.059Z,103144.56
2019-02-22T03:29:05.000Z,103155.27
2019-02-22T03:32:08.849Z,103152.63
2019-02-22T03:35:13.201Z,103160.66
2019-02-22T03:38:17.043Z,103168.59
2019-02-22T03:41:31.873Z,103174.85
2019-02-22T03:44:26.447Z,103178.92
2019-02-22T03:47:30.288Z,103177.82
2019-02-22T03:50:34.223Z,103186.93
2019-02-22T03:53:50.070Z,103190.53
2019-02-22T03:56:53.937Z,103200.88
2019-02-22T03:59:57.856Z,103201.49
2019-02-22T04:03:01.839Z,103217.62
2019-02-22T04:06:05.726Z,103220.56
2019-02-22T04:09:12.506Z,103230.47
2019-02-22T04:12:16.297Z,103237.05
2019-02-22T04:15:20.241Z,103231.48
2019-02-22T04:18:24.100Z,103233.83
2019-02-22T04:21:27.915Z,103246.87
2019-02-22T04:24:31.853Z,103258.55
2019-02-22T04:27:35.655Z,103263.96
2019-02-22T04:30:39.553Z,103277.14
2019-02-22T04:33:43.409Z,103277.77
2019-02-22T04:36:47.330Z,103287.66
2019-02-22T04:39:51.205Z,103288.44
2019-02-22T04:42:55.279Z,103294.45
2019-02-22T04:45:59.156Z,103298.22
2019-02-22T04:49:05.019Z,103306.26
2019-02-22T04:52:09.328Z,103317.69
2019-02-22T04:55:17.769Z,103325.78
2019-02-22T04:58:21.913Z,103331.52
2019-02-22T05:01:25.911Z,103344.13
2019-02-22T05:04:30.325Z,103349.65
2019-02-22T05:07:34.718Z,103350.03
2019-02-22T05:10:39.473Z,103358.07
2019-02-22T05:13:43.739Z,103364.42
2019-02-22T05:16:47.607Z,103365.73
2019-02-22T05:19:51.494Z,103381.52
2019-02-22T05:23:03.373Z,103386.81
2019-02-22T05:26:01.252Z,103394.30
2019-02-22T05:29:05.534Z,103395.91
2019-02-22T05:32:10.362Z,103400.52
2019-02-22T05:35:14.817Z,103398.61
2019-02-22T05:38:19.214Z,103401.89
2019-02-22T05:41:23.576Z,103403.64
2019-02-22T05:44:28.622Z,103403.75
2019-02-22T05:47:33.039Z,103414.67
2019-02-22T05:50:37.248Z,103429.09
2019-02-22T05:53:41.082Z,103437.50
2019-02-22T05:56:45.005Z,103457.18
2019-02-22T05:59:48.883Z,103462.12
2019-02-22T06:02:52.780Z,103472.59
2019-02-22T06:05:56.690Z,103482.56
2019-02-22T06:09:00.824Z,103494.47
2019-02-22T06:12:05.732Z,103502.40
2019-02-22T06:15:10.505Z,103522.44
2019-02-22T06:18:14.868Z,103525.58
2019-02-22T06:21:19.026Z,103533.47
2019-02-22T06:24:23.592Z,103543.31
2019-02-22T06:27:27.698Z,103549.64
2019-02-22T06:30:31.817Z,103553.36
2019-02-22T06:33:35.845Z,103565.82
2019-02-22T06:36:39.835Z,103567.65
2019-02-22T06:39:45.461Z,103567.57
2019-02-22T06:42:49.321Z,103579.17
2019-02-22T06:45:54.384Z,103580.98
2019-02-22T06:48:58.425Z,103582.78
2019-02-22T06:52:02.321Z,103583.29
2019-02-22T06:55:06.721Z,103585.24
2019-02-22T06:58:11.829Z,103593.33
2019-02-22T07:01:15.797Z,103599.84
2019-02-22T07:04:19.626Z,103611.52
2019-02-22T07:07:26.632Z,103613.48
2019-02-22T07:10:35.173Z,103618.75
2019-02-22T07:13:39.178Z,103616.25
2019-02-22T07:16:43.282Z,103621.90
2019-02-22T07:19:47.118Z,103633.94
2019-02-22T07:22:52.520Z,103635.73
2019-02-22T07:25:56.345Z,103643.63
2019-02-22T07:29:00.601Z,103651.28
2019-02-22T07:32:06.184Z,103666.44
2019-02-22T07:35:10.200Z,103671.34
2019-02-22T07:38:14.092Z,103678.01
2019-02-22T07:41:17.939Z,103683.27
2019-02-22T07:44:21.769Z,103682.97
2019-02-22T07:47:25.763Z,103690.85
2019-02-22T07:50:29.668Z,103700.05
2019-02-22T07:53:33.502Z,103704.20
2019-02-22T07:56:37.338Z,103711.83
2019-02-22T07:59:41.231Z,103713.05
2019-02-22T08:02:45.230Z,103713.41
2019-02-22T08:05:49.050Z,103726.20
2019-02-22T08:08:53.051Z,103732.85
2019-02-22T08:11:57.063Z,103746.34
2019-02-22T08:15:01.032Z,103752.61
2019-02-22T08:18:04.848Z,103753.27
2019-02-22T08:21:09.011Z,103763.91
2019-02-22T08:24:13.132Z,103781.12
2019-02-22T08:27:16.948Z,103778.89
2019-02-22T08:30:20.938Z,103781.38
2019-02-22T08:33:24.783Z,103783.65
2019-02-22T08:36:28.639Z,103782.70
2019-02-22T08:39:32.702Z,103789.41
2019-02-22T08:42:36.540Z,103782.42
2019-02-22T08:45:40.445Z,103771.34
2019-02-22T08:48:44.293Z,103795.44
2019-02-22T08:51:48.173Z,103792.37
2019-02-22T08:54:51.993Z,103792.47
2019-02-22T08:57:55.819Z,103801.52
2019-02-22T09:01:00.880Z,103809.46
2019-02-22T09:04:04.611Z,103804.27
2019-02-22T09:07:08.426Z,103813.27
2019-02-22T09:10:12.683Z,103812.41
2019-02-22T09:13:16.579Z,103815.12
2019-02-22T09:16:20.426Z,103812.38
2019-02-22T09:19:24.349Z,103808.70
2019-02-22T09:22:28.277Z,103814.92
2019-02-22T09:25:32.149Z,103825.16
2019-02-22T09:28:35.999Z,103827.09
2019-02-22T09:31:39.827Z,103831.17
2019-02-22T09:34:46.027Z,103836.77
2019-02-22T09:37:49.160Z,103844.45
2019-02-22T09:40:52.992Z,103850.40
2019-02-22T09:43:56.876Z,103859.63
2019-02-22T09:47:00.675Z,103861.37
2019-02-22T09:50:04.638Z,103866.77
2019-02-22T09:53:08.518Z,103880.92
2019-02-22T09:56:12.344Z,103890.50
2019-02-22T09:59:16.181Z,103909.22
2019-02-22T10:02:20.003Z,103905.41
2019-02-22T10:05:23.809Z,103913.44
2019-02-22T10:08:27.620Z,103905.22
2019-02-22T10:11:31.466Z,103919.16
2019-02-22T10:14:35.313Z,103914.09
2019-02-22T10:17:39.125Z,103911.64
2019-02-22T10:20:42.929Z,103922.31
2019-02-22T10:23:47.101Z,103921.34
2019-02-22T10:26:50.906Z,103931.25
2019-02-22T10:29:54.774Z,103937.23
2019-02-22T10:32:58.599Z,103943.33
2019-02-22T10:36:02.433Z,103956.80
2019-02-22T10:39:06.679Z,103948.14
2019-02-22T10:42:10.469Z,103954.10
2019-02-22T10:45:14.393Z,103962.03
2019-02-22T10:48:18.211Z,103961.98
2019-02-22T10:51:22.050Z,103961.38
2019-02-22T10:54:25.895Z,103956.79
2019-02-22T10:57:29.708Z,103958.59
2019-02-22T11:00:33.620Z,103963.86
2019-02-22T11:03:37.446Z,103965.17
2019-02-22T11:06:41.255Z,103957.09
2019-02-22T11:09:45.194Z,103959.43
2019-02-22T11:12:49.028Z,103960.75
2019-02-22T11:15:52.970Z,103971.31
2019-02-22T11:18:56.790Z,103977.60
2019-02-22T11:22:00.718Z,103983.00
2019-02-22T11:25:05.729Z,103983.03
2019-02-22T11:28:09.718Z,103978.03
2019-02-22T11:31:15.061Z,103976.07
2019-02-22T11:34:18.917Z,103976.45
2019-02-22T11:37:22.823Z,103984.18
2019-02-22T11:40:26.669Z,103984.10
2019-02-22T11:43:30.460Z,103980.74
2019-02-22T11:46:34.288Z,103990.45
2019-02-22T11:49:38.180Z,103991.28
2019-02-22T11:52:42.129Z,103971.77
2019-02-22T11:55:45.939Z,103973.89
2019-02-22T11:58:49.878Z,103971.39
2019-02-22T12:01:53.897Z,103970.16
2019-02-22T12:04:57.717Z,103966.95
2019-02-22T12:08:03.518Z,103967.80
2019-02-22T12:11:07.279Z,103979.50
2019-02-22T12:14:11.279Z,103973.31
2019-02-22T12:17:15.064Z,103963.42
2019-02-22T12:20:18.889Z,103969.70
2019-02-22T12:23:22.803Z,103980.36
2019-02-22T12:26:26.651Z,103983.83
2019-02-22T12:29:30.534Z,103967.66
2019-02-22T12:32:34.372Z,103962.82
2019-02-22T12:35:38.302Z,103955.56
2019-02-22T12:38:42.131Z,103953.33
2019-02-22T12:41:45.933Z,103955.13
2019-02-22T12:44:49.850Z,103967.23
2019-02-22T12:47:53.659Z,103959.97
2019-02-22T12:50:57.501Z,103960.48
2019-02-22T12:54:01.395Z,103953.20
2019-02-22T12:57:05.222Z,103949.45
2019-02-22T13:00:11.401Z,103945.73
2019-02-22T13:03:15.215Z,103951.36
2019-02-22T13:06:19.126Z,103966.26
2019-02-22T13:09:22.915Z,103969.84
2019-02-22T13:12:26.880Z,103977.59
2019-02-22T13:15:30.786Z,103983.75
2019-02-22T13:18:34.587Z,103995.90
2019-02-22T13:21:38.373Z,104015.31
2019-02-22T13:24:42.189Z,104023.22
2019-02-22T13:27:45.991Z,104020.81
2019-02-22T13:30:49.892Z,104016.66
2019-02-22T13:33:53.694Z,104017.05
2019-02-22T13:36:57.519Z,104007.42
2019-02-22T13:40:01.371Z,104010.55
2019-02-22T13:43:05.505Z,104007.50
2019-02-22T13:46:09.453Z,104005.81
2019-02-22T13:49:13.330Z,104014.02
2019-02-22T13:52:17.167Z,104020.50
2019-02-22T13:55:20.984Z,104023.39
2019-02-22T13:58:24.809Z,104030.17
2019-02-22T14:01:28.745Z,104018.09
2019-02-22T14:04:32.539Z,104022.66
2019-02-22T14:07:37.133Z,104019.47
2019-02-22T14:10:41.091Z,104028.48
2019-02-22T14:13:45.043Z,104021.00
2019-02-22T14:16:48.910Z,104024.53
2019-02-22T14:19:52.832Z,104023.39
2019-02-22T14:22:56.686Z,104030.08
2019-02-22T14:26:00.515Z,104029.23
2019-02-22T14:29:04.524Z,104023.98
2019-02-22T14:32:08.400Z,104039.65
2019-02-22T14:35:12.198Z,104037.23
2019-02-22T14:38:16.053Z,104030.08
2019-02-22T14:41:19.820Z,104036.44
2019-02-22T14:44:23.637Z,104035.02
2019-02-22T14:47:27.467Z,104027.09
2019-02-22T14:50:31.343Z,104035.27
2019-02-22T14:53:35.158Z,104043.73
2019-02-22T14:56:38.984Z,104049.14
2019-02-22T14:59:42.898Z,104040.75
2019-02-22T15:02:46.889Z,104038.47
2019-02-22T15:05:50.718Z,104042.91
2019-02-22T15:08:54.648Z,104046.02
2019-02-22T15:11:59.163Z,104047.83
2019-02-22T15:15:03.100Z,104050.11
2019-02-22T15:18:07.349Z,104047.69
2019-02-22T15:21:11.134Z,104057.17
2019-02-22T15:24:14.929Z,104061.21
2019-02-22T15:27:18.769Z,104058.36
2019-02-22T15:30:22.690Z,104071.73
2019-02-22T15:33:26.452Z,104072.00
2019-02-22T15:36:30.264Z,104070.11
2019-02-22T15:39:34.076Z,104080.59
2019-02-22T15:42:40.458Z,104086.12
2019-02-22T15:45:43.388Z,104081.11
2019-02-22T15:48:47.195Z,104077.23
2019-02-22T15:51:51.109Z,104068.82
2019-02-22T15:54:54.927Z,104073.77
2019-02-22T15:57:58.747Z,104078.89
2019-02-22T16:01:02.722Z,104071.11
2019-02-22T16:04:31.287Z,104076.63
2019-02-22T16:07:44.234Z,104096.56
2019-02-22T16:10:40.719Z,104101.19
2019-02-22T16:13:45.218Z,104103.48
2019-02-22T16:16:49.052Z,104100.16
2019-02-22T16:19:52.888Z,104099.88
2019-02-22T16:22:56.684Z,104097.74
2019-02-22T16:26:00.485Z,104093.94
2019-02-22T16:29:04.375Z,104094.37
2019-02-22T16:32:08.287Z,104089.80
2019-02-22T16:35:12.226Z,104084.73
2019-02-22T16:38:16.034Z,104087.70
2019-02-22T16:41:19.838Z,104094.46
2019-02-22T16:44:23.722Z,104114.66
2019-02-22T16:47:27.534Z,104121.72
2019-02-22T16:50:31.423Z,104127.98
2019-02-22T16:53:35.210Z,104140.47
2019-02-22T16:56:39.029Z,104127.97
2019-02-22T16:59:43.184Z,104124.69
2019-02-22T17:02:49.140Z,104128.56
2019-02-22T17:05:55.729Z,104130.61
2019-02-22T17:13:09.322Z,104131.27
2019-02-22T17:16:17.006Z,104140.80
2019-02-22T17:41:37.333Z,104128.77
2019-02-22T17:44:41.887Z,104144.09
2019-02-22T17:47:46.064Z,104142.19
2019-02-22T17:50:51.995Z,104132.28
2019-02-22T17:53:56.097Z,104110.86
2019-02-22T17:57:00.019Z,104130.21
2019-02-22T18:00:04.151Z,104118.73
2019-02-22T18:03:07.989Z,104122.66
2019-02-22T18:06:11.831Z,104125.58
2019-02-22T18:09:15.687Z,104112.30
2019-02-22T18:12:19.498Z,104118.30
2019-02-22T18:15:23.552Z,104111.08
2019-02-22T18:18:27.442Z,104108.36
2019-02-22T18:21:32.855Z,104121.97
2019-02-22T18:24:36.720Z,104122.23
2019-02-22T18:27:40.497Z,104126.06
2019-02-22T18:30:44.449Z,104136.66
2019-02-22T18:33:48.312Z,104149.67
2019-02-22T18:36:52.113Z,104158.59
2019-02-22T18:39:55.909Z,104165.42
2019-02-22T18:42:59.717Z,104186.41
2019-02-22T18:46:06.930Z,104192.97
2019-02-22T18:49:13.137Z,104179.36
2019-02-22T18:52:16.936Z,104168.86
2019-02-22T18:55:20.774Z,104180.83
2019-02-22T18:58:24.574Z,104180.72
2019-02-22T19:01:28.483Z,104193.07
2019-02-22T19:04:32.278Z,104186.52
2019-02-22T19:07:36.067Z,104185.25
2019-02-22T19:10:40.105Z,104187.70
2019-02-22T19:13:43.864Z,104195.38
2019-02-22T19:16:47.683Z,104202.53
2019-02-22T19:19:51.497Z,104203.73
2019-02-22T19:22:55.335Z,104205.86
2019-02-22T19:25:59.108Z,104199.95
2019-02-22T19:29:02.915Z,104203.89
2019-02-22T19:32:06.741Z,104223.39
2019-02-22T19:35:10.662Z,104212.74
2019-02-22T19:38:14.444Z,104207.16
2019-02-22T19:41:18.290Z,104185.82
2019-02-22T19:44:22.083Z,104179.06
2019-02-22T19:47:26.062Z,104173.81
2019-02-22T19:50:40.838Z,104186.04
2019-02-22T19:53:35.404Z,104173.25
2019-02-22T19:56:39.259Z,104161.67
2019-02-22T19:59:43.031Z,104186.91
2019-02-22T20:02:46.913Z,104182.59
2019-02-22T20:05:50.730Z,104179.96
2019-02-22T20:08:54.523Z,104183.11
2019-02-22T20:11:58.426Z,104181.27
2019-02-22T20:15:02.286Z,104189.25
2019-02-22T20:18:09.015Z,104186.27
2019-02-22T20:21:12.808Z,104193.22
2019-02-22T20:24:16.638Z,104195.84
2019-02-22T20:27:20.421Z,104198.28
2019-02-22T20:30:24.223Z,104196.16
2019-02-22T20:33:28.020Z,104191.12
2019-02-22T20:36:31.847Z,104199.09
2019-02-22T20:39:35.673Z,104205.33
2019-02-22T20:42:39.471Z,104198.78
2019-02-22T20:45:43.268Z,104211.85
2019-02-22T20:48:47.097Z,104212.13
2019-02-22T20:51:50.890Z,104205.41
2019-02-22T20:54:54.684Z,104207.70
2019-02-22T20:57:58.502Z,104216.17
2019-02-22T21:01:02.298Z,104201.26
2019-02-22T21:04:06.195Z,104207.42
2019-02-22T21:07:10.040Z,104199.13
2019-02-22T21:10:15.284Z,104191.70
2019-02-22T21:13:19.070Z,104199.63
2019-02-22T21:16:22.883Z,104207.84
2019-02-22T21:19:26.691Z,104212.41
2019-02-22T21:22:30.524Z,104203.38
2019-02-22T21:25:34.308Z,104203.55
2019-02-22T21:28:38.114Z,104212.80
2019-02-22T21:31:41.956Z,104213.12
2019-02-22T21:34:48.444Z,104217.97
2019-02-22T21:37:51.264Z,104232.23
2019-02-22T21:40:55.047Z,104243.52
2019-02-22T21:43:58.843Z,104252.97
2019-02-22T21:47:02.632Z,104254.70
2019-02-22T21:50:07.804Z,104248.66
2019-02-22T21:53:11.650Z,104249.65
2019-02-22T21:56:15.433Z,104257.02
2019-02-22T21:59:19.288Z,104250.36
2019-02-22T22:02:23.071Z,104253.51
2019-02-22T22:05:26.952Z,104246.22
2019-02-22T22:08:30.735Z,104232.62
2019-02-22T22:11:34.536Z,104234.24
2019-02-22T22:14:38.359Z,104233.06
2019-02-22T22:17:42.210Z,104238.90
2019-02-22T22:20:45.987Z,104243.07
2019-02-22T22:23:49.788Z,104245.08
2019-02-22T22:26:53.601Z,104252.63
2019-02-22T22:29:57.401Z,104250.32
2019-02-22T22:33:01.207Z,104256.87
2019-02-22T22:36:05.100Z,104263.73
2019-02-22T22:39:08.955Z,104265.53
2019-02-22T22:42:12.846Z,104266.73
2019-02-22T22:45:16.804Z,104269.67
2019-02-22T22:48:20.669Z,104277.14
2019-02-22T22:51:24.464Z,104264.86
2019-02-22T22:54:28.337Z,104250.27
2019-02-22T22:57:32.137Z,104228.28
2019-02-22T23:00:58.815Z,104214.61
2019-02-22T23:04:02.719Z,104221.55
2019-02-22T23:07:06.589Z,104198.11
2019-02-22T23:10:10.481Z,104200.23
2019-02-22T23:13:14.377Z,104198.31
2019-02-22T23:16:18.228Z,104206.27
2019-02-22T23:19:22.087Z,104204.28
2019-02-22T23:22:25.861Z,104205.09
2019-02-22T23:25:29.794Z,104194.62
2019-02-22T23:28:33.609Z,104200.87
2019-02-22T23:31:37.451Z,104204.88
2019-02-22T23:34:41.276Z,104203.38
2019-02-22T23:37:45.146Z,104191.91
2019-02-22T23:40:48.943Z,104196.64
2019-02-22T23:43:52.843Z,104195.34
2019-02-22T23:46:56.712Z,104202.69
2019-02-22T23:50:00.520Z,104215.17
2019-02-22T23:53:04.427Z,104200.20
2019-02-22T23:56:08.232Z,104194.23
2019-02-22T23:59:12.033Z,104200.09
